Time;durP1;ratioP1;P1;durP2;ratioP2;P2;SDS_P1;SDS_P2;PMS_P1;PMS_P2;Temp;Humidity;BMP_temperature;BMP_pressure;BME280_temperature;BME280_humidity;BME280_pressure;Samples;Min_cycle;Max_cycle;Signal;HPM_P1;HPM_P2
2023/01/16 00:01:39;;;;;;;4.70;1.17;;;4.90;84.80;;;;;;5106520;28;20144;-83
2023/01/16 00:04:05;;;;;;;4.28;1.08;;;4.90;84.70;;;;;;5109026;28;20044;-84
2023/01/16 00:06:33;;;;;;;5.13;1.40;;;4.90;84.70;;;;;;5105251;28;20055;-83
2023/01/16 00:09:00;;;;;;;5.40;1.38;;;4.90;84.80;;;;;;5106670;28;20278;-83
2023/01/16 00:11:29;;;;;;;4.40;1.30;;;4.90;84.70;;;;;;5105708;28;20062;-83
2023/01/16 00:13:56;;;;;;;4.97;1.20;;;4.80;84.70;;;;;;5106773;28;20505;-83
2023/01/16 00:16:23;;;;;;;6.78;1.38;;;4.80;84.70;;;;;;5107044;28;20494;-83
2023/01/16 00:18:50;;;;;;;6.60;1.40;;;4.80;84.70;;;;;;5106525;28;20505;-84
2023/01/16 00:21:17;;;;;;;5.97;1.30;;;4.80;84.70;;;;;;5090129;28;20283;-83
2023/01/16 00:23:44;;;;;;;3.17;0.88;;;4.70;84.70;;;;;;5105461;28;20048;-84
2023/01/16 00:26:11;;;;;;;4.85;1.20;;;4.70;84.60;;;;;;5106740;28;20048;-84
2023/01/16 00:28:40;;;;;;;6.45;1.95;;;4.70;84.60;;;;;;5106411;28;20067;-83
2023/01/16 00:31:07;;;;;;;6.37;1.40;;;4.70;84.60;;;;;;5106644;28;20565;-83
2023/01/16 00:33:34;;;;;;;4.65;1.13;;;4.70;84.70;;;;;;5076046;28;20931;-84
2023/01/16 00:36:02;;;;;;;6.38;1.65;;;4.80;84.70;;;;;;5106670;28;20127;-83
2023/01/16 00:38:29;;;;;;;6.15;1.50;;;4.80;84.70;;;;;;5106556;28;20056;-83
2023/01/16 00:40:56;;;;;;;5.60;1.48;;;4.70;84.80;;;;;;5104890;28;20536;-83
2023/01/16 00:43:23;;;;;;;6.47;1.30;;;4.80;85.00;;;;;;5106524;28;20048;-84
2023/01/16 00:45:51;;;;;;;4.07;1.20;;;4.80;85.00;;;;;;5106825;28;20346;-83
2023/01/16 00:48:18;;;;;;;6.40;1.30;;;4.80;85.00;;;;;;5106240;28;20045;-83
2023/01/16 00:50:45;;;;;;;6.72;1.52;;;4.80;85.10;;;;;;5086623;28;20560;-83
2023/01/16 00:53:12;;;;;;;4.38;1.10;;;4.80;85.00;;;;;;5107008;28;20060;-83
2023/01/16 00:55:41;;;;;;;4.87;1.30;;;4.90;85.00;;;;;;5106546;28;20052;-83
2023/01/16 00:58:08;;;;;;;5.97;1.33;;;4.90;85.00;;;;;;5105901;28;20283;-83
2023/01/16 01:00:35;;;;;;;8.18;1.48;;;4.90;85.00;;;;;;5107816;28;20060;-83
2023/01/16 01:03:05;;;;;;;4.82;1.30;;;4.90;85.00;;;;;;5106660;28;20044;-84
2023/01/16 01:05:35;;;;;;;8.50;1.70;;;4.90;85.00;;;;;;5103726;27;20084;-83
2023/01/16 01:08:02;;;;;;;7.23;1.40;;;4.90;85.00;;;;;;5091129;28;20135;-82
2023/01/16 01:10:29;;;;;;;5.38;1.05;;;4.90;84.90;;;;;;5102390;28;20296;-83
2023/01/16 01:12:56;;;;;;;8.70;1.98;;;4.90;84.90;;;;;;5100345;28;20060;-83
2023/01/16 01:15:23;;;;;;;3.78;1.10;;;4.90;85.00;;;;;;5108098;28;20500;-83
2023/01/16 01:17:50;;;;;;;5.88;1.45;;;4.80;85.10;;;;;;5106454;28;20044;-83
2023/01/16 01:20:18;;;;;;;4.83;1.13;;;4.90;85.10;;;;;;5109577;28;20051;-83
2023/01/16 01:22:45;;;;;;;5.00;1.08;;;4.90;85.10;;;;;;5111082;28;20784;-83
2023/01/16 01:25:13;;;;;;;6.75;1.20;;;4.80;85.10;;;;;;5109594;28;20052;-83
2023/01/16 01:27:40;;;;;;;6.45;1.05;;;4.90;85.20;;;;;;5111169;28;20051;-83
2023/01/16 01:30:09;;;;;;;3.50;0.88;;;4.80;85.10;;;;;;5109426;28;20052;-83
2023/01/16 01:32:36;;;;;;;5.20;0.93;;;4.90;85.10;;;;;;5108336;28;20157;-83
2023/01/16 01:35:05;;;;;;;5.95;0.90;;;4.80;85.10;;;;;;5092467;28;20262;-83
2023/01/16 01:37:33;;;;;;;4.97;1.00;;;4.80;85.10;;;;;;5092066;28;20131;-83
2023/01/16 01:40:00;;;;;;;5.30;1.10;;;4.80;85.10;;;;;;5088554;28;20497;-84
2023/01/16 01:42:43;;;;;;;5.13;1.20;;;4.80;85.10;;;;;;5108152;28;20059;-84
2023/01/16 01:45:16;;;;;;;4.43;1.00;;;4.70;85.10;;;;;;5072672;28;20048;-83
2023/01/16 01:47:48;;;;;;;4.03;1.02;;;4.70;85.20;;;;;;5091161;28;20243;-83
2023/01/16 01:50:22;;;;;;;5.85;1.27;;;4.70;85.20;;;;;;5090937;28;20056;-83
2023/01/16 01:52:52;;;;;;;5.18;1.27;;;4.70;85.20;;;;;;5110822;28;20056;-84
2023/01/16 01:55:21;;;;;;;5.35;1.10;;;4.70;85.30;;;;;;5108904;28;20052;-83
2023/01/16 01:57:54;;;;;;;4.97;0.90;;;4.70;85.30;;;;;;5108754;28;20131;-83
2023/01/16 02:00:24;;;;;;;5.07;1.10;;;4.70;85.30;;;;;;5071623;28;20267;-83
2023/01/16 02:02:56;;;;;;;4.40;1.08;;;4.70;85.30;;;;;;5089629;28;20060;-83
2023/01/16 02:05:29;;;;;;;4.72;1.20;;;4.70;85.40;;;;;;5109627;28;20131;-83
2023/01/16 02:07:59;;;;;;;4.28;0.90;;;4.70;85.40;;;;;;5091117;28;20048;-83
2023/01/16 02:10:33;;;;;;;6.83;1.10;;;4.70;85.40;;;;;;5108891;28;20118;-83
2023/01/16 02:13:02;;;;;;;5.07;1.00;;;4.70;85.40;;;;;;5108802;28;20254;-83
2023/01/16 02:15:30;;;;;;;6.25;1.33;;;4.80;85.40;;;;;;5109092;27;20426;-83
2023/01/16 02:20:58;;;;;;;6.57;1.20;;;4.70;85.40;;;;;;5108794;28;20344;-83
2023/01/16 02:24:08;;;;;;;5.67;1.27;;;4.80;85.40;;;;;;5108529;28;20144;-83
2023/01/16 02:26:58;;;;;;;3.25;1.00;;;4.80;85.30;;;;;;5107097;28;20377;-83
2023/01/16 02:29:57;;;;;;;5.60;1.15;;;4.80;85.30;;;;;;5108266;28;20036;-82
2023/01/16 02:32:34;;;;;;;3.92;1.20;;;4.80;85.40;;;;;;5108593;28;20097;-83
2023/01/16 02:35:15;;;;;;;7.13;1.40;;;4.80;85.40;;;;;;5108489;28;20145;-83
2023/01/16 02:37:48;;;;;;;4.60;1.00;;;4.80;85.40;;;;;;5108323;28;20048;-83
2023/01/16 02:40:31;;;;;;;4.95;1.10;;;4.80;85.50;;;;;;5108530;28;20269;-83
2023/01/16 02:43:08;;;;;;;5.75;1.20;;;4.90;85.50;;;;;;5089670;28;21025;-83
2023/01/16 02:45:43;;;;;;;5.95;1.20;;;4.90;85.50;;;;;;5108695;28;20127;-83
2023/01/16 02:48:16;;;;;;;3.75;1.20;;;4.90;85.60;;;;;;5108449;28;20192;-83
2023/01/16 02:50:52;;;;;;;5.73;1.10;;;4.90;85.60;;;;;;5108168;28;20120;-83
2023/01/16 02:53:29;;;;;;;6.18;1.10;;;4.90;85.60;;;;;;5109760;28;20290;-83
2023/01/16 02:56:02;;;;;;;5.18;1.10;;;4.90;85.70;;;;;;5108229;28;20094;-83
2023/01/16 02:58:32;;;;;;;6.57;1.30;;;4.90;85.70;;;;;;5107508;28;20051;-83
2023/01/16 03:01:00;;;;;;;5.70;1.30;;;4.90;85.70;;;;;;5106135;28;20504;-83
2023/01/16 03:03:40;;;;;;;5.53;1.10;;;5.00;85.70;;;;;;5108218;28;20129;-83
2023/01/16 03:06:26;;;;;;;5.20;1.40;;;5.00;85.70;;;;;;5090887;28;20279;-83
2023/01/16 03:09:02;;;;;;;4.82;1.60;;;5.00;85.70;;;;;;5107745;28;20598;-83
2023/01/16 03:11:32;;;;;;;5.18;1.30;;;5.00;85.70;;;;;;5107523;28;20648;-83
2023/01/16 03:14:16;;;;;;;5.63;1.70;;;5.00;85.70;;;;;;5107855;28;20055;-83
2023/01/16 03:16:57;;;;;;;7.27;1.70;;;5.00;85.80;;;;;;5090834;28;20561;-83
2023/01/16 03:19:37;;;;;;;7.80;1.90;;;5.00;85.70;;;;;;5090256;28;20251;-83
2023/01/16 03:22:11;;;;;;;4.95;1.58;;;5.00;85.70;;;;;;5109529;28;20628;-83
2023/01/16 03:24:50;;;;;;;4.75;1.67;;;5.00;85.70;;;;;;5090755;28;20083;-83
2023/01/16 03:27:30;;;;;;;5.00;2.08;;;5.00;85.80;;;;;;5107070;27;20080;-83
2023/01/16 03:30:07;;;;;;;6.43;2.30;;;5.00;85.70;;;;;;5090167;28;20044;-83
2023/01/16 03:32:40;;;;;;;6.40;1.80;;;5.00;85.80;;;;;;5107203;28;20293;-83
2023/01/16 03:35:13;;;;;;;6.82;2.00;;;5.00;85.80;;;;;;5105284;28;20189;-83
2023/01/16 03:37:46;;;;;;;4.93;1.70;;;5.00;85.80;;;;;;5108660;27;20060;-83
2023/01/16 03:40:19;;;;;;;4.63;1.58;;;5.10;85.80;;;;;;5105473;28;20052;-83
2023/01/16 03:42:53;;;;;;;7.40;2.10;;;5.00;85.80;;;;;;5105262;28;20062;-83
2023/01/16 03:45:24;;;;;;;5.47;1.65;;;5.10;85.90;;;;;;5105807;28;20346;-83
2023/01/16 03:47:57;;;;;;;6.15;2.40;;;5.10;85.80;;;;;;5105510;28;20138;-83
2023/01/16 03:50:28;;;;;;;6.20;2.20;;;5.00;85.70;;;;;;5106815;28;20575;-83
2023/01/16 03:53:01;;;;;;;6.03;2.25;;;5.10;85.70;;;;;;5104032;28;20052;-83
2023/01/16 03:55:34;;;;;;;7.23;2.40;;;5.00;85.70;;;;;;5107360;28;20410;-83
2023/01/16 03:58:06;;;;;;;5.28;2.22;;;5.00;85.80;;;;;;5106690;28;20781;-83
2023/01/16 04:00:47;;;;;;;5.32;2.15;;;5.10;85.80;;;;;;5090134;28;20048;-83
2023/01/16 04:03:20;;;;;;;5.28;2.40;;;5.10;85.70;;;;;;5106648;28;20149;-82
2023/01/16 04:05:54;;;;;;;8.30;2.70;;;5.00;85.70;;;;;;5107447;28;20054;-83
2023/01/16 04:08:28;;;;;;;7.53;2.63;;;5.00;85.70;;;;;;5107376;28;20145;-82
2023/01/16 04:10:56;;;;;;;6.28;2.90;;;5.00;85.80;;;;;;5105282;28;20803;-83
2023/01/16 04:13:28;;;;;;;6.70;2.60;;;5.00;85.80;;;;;;5106907;28;20131;-83
2023/01/16 04:15:59;;;;;;;6.45;2.80;;;5.10;85.80;;;;;;5090330;28;20059;-83
2023/01/16 04:18:31;;;;;;;7.70;3.47;;;5.00;85.70;;;;;;5106465;28;20450;-83
2023/01/16 04:20:59;;;;;;;7.40;3.03;;;5.00;85.70;;;;;;5106787;28;20056;-83
2023/01/16 04:23:26;;;;;;;8.57;3.50;;;5.00;85.70;;;;;;5106491;28;20623;-83
2023/01/16 04:25:53;;;;;;;7.90;4.15;;;5.00;85.70;;;;;;5107228;28;20183;-83
2023/01/16 04:28:20;;;;;;;9.32;4.13;;;5.00;85.90;;;;;;5105180;28;20055;-83
2023/01/16 04:30:47;;;;;;;9.77;4.50;;;5.00;86.00;;;;;;5106945;28;20040;-83
2023/01/16 04:33:14;;;;;;;11.07;4.07;;;5.00;86.00;;;;;;5107135;28;20484;-83
2023/01/16 04:35:41;;;;;;;10.70;4.72;;;5.10;86.10;;;;;;5106580;28;20321;-83
2023/01/16 04:38:09;;;;;;;11.85;4.43;;;5.10;86.00;;;;;;5106283;28;20131;-83
2023/01/16 04:40:36;;;;;;;12.30;6.30;;;5.00;85.90;;;;;;5091030;28;20075;-83
2023/01/16 04:43:03;;;;;;;11.43;5.28;;;5.00;86.10;;;;;;5110083;28;20044;-83
2023/01/16 04:45:30;;;;;;;10.10;5.00;;;5.00;86.10;;;;;;5091514;28;20052;-83
2023/01/16 04:47:57;;;;;;;9.13;4.70;;;5.00;86.10;;;;;;5110606;28;20741;-83
2023/01/16 04:50:24;;;;;;;11.18;5.10;;;5.00;86.10;;;;;;5109571;28;20052;-83
2023/01/16 04:52:51;;;;;;;13.82;5.50;;;5.00;86.20;;;;;;5109852;28;20492;-83
2023/01/16 04:55:20;;;;;;;11.23;5.15;;;5.00;86.20;;;;;;5111728;28;20147;-83
2023/01/16 04:57:47;;;;;;;12.57;5.53;;;5.00;86.10;;;;;;5092642;28;20059;-83
2023/01/16 05:00:15;;;;;;;12.85;5.47;;;5.00;86.10;;;;;;5093063;28;20251;-83
2023/01/16 05:02:41;;;;;;;12.30;4.70;;;5.00;86.10;;;;;;5107937;28;20051;-83
2023/01/16 05:05:09;;;;;;;10.88;5.15;;;5.00;86.10;;;;;;5104968;28;20119;-83
2023/01/16 05:07:36;;;;;;;11.23;5.15;;;5.00;86.00;;;;;;5107324;28;20192;-83
2023/01/16 05:10:03;;;;;;;13.70;5.00;;;5.00;86.10;;;;;;5106155;28;20087;-83
2023/01/16 05:12:31;;;;;;;10.48;4.97;;;5.00;86.00;;;;;;5107716;28;20266;-83
2023/01/16 05:14:58;;;;;;;10.25;4.22;;;5.00;86.00;;;;;;5092802;28;20044;-83
2023/01/16 05:17:26;;;;;;;12.20;4.72;;;5.00;86.00;;;;;;5109604;28;20054;-83
2023/01/16 05:19:53;;;;;;;12.02;4.80;;;5.00;86.00;;;;;;5107672;28;20525;-83
2023/01/16 05:22:21;;;;;;;11.70;4.67;;;4.90;85.90;;;;;;5109036;28;20138;-83
2023/01/16 05:24:48;;;;;;;10.88;4.30;;;4.90;85.80;;;;;;5109362;28;20332;-83
2023/01/16 05:27:15;;;;;;;12.77;4.35;;;4.90;85.70;;;;;;5092251;28;20044;-83
2023/01/16 05:29:43;;;;;;;11.90;4.88;;;4.90;85.70;;;;;;5108914;28;20052;-83
2023/01/16 05:32:10;;;;;;;10.45;4.35;;;4.90;85.70;;;;;;5109227;28;20051;-83
2023/01/16 05:34:37;;;;;;;10.90;4.63;;;4.80;85.70;;;;;;5111197;28;20044;-83
2023/01/16 05:37:04;;;;;;;7.57;3.72;;;4.90;85.80;;;;;;5086362;28;20261;-83
2023/01/16 05:39:31;;;;;;;9.30;4.60;;;4.90;85.80;;;;;;5116484;27;20684;-83
2023/01/16 05:41:58;;;;;;;9.00;3.97;;;4.90;85.80;;;;;;5108332;28;20418;-83
2023/01/16 05:44:25;;;;;;;12.93;4.60;;;4.90;85.60;;;;;;5109627;28;20054;-83
2023/01/16 05:46:53;;;;;;;9.87;4.17;;;4.80;85.60;;;;;;5109294;28;20139;-83
2023/01/16 05:49:20;;;;;;;10.45;4.53;;;4.70;85.60;;;;;;5108580;28;20262;-84
2023/01/16 05:51:47;;;;;;;9.82;3.55;;;4.70;85.60;;;;;;5109250;27;20111;-83
2023/01/16 05:54:14;;;;;;;10.23;3.80;;;4.70;85.40;;;;;;5106945;28;20052;-83
2023/01/16 05:56:42;;;;;;;7.60;3.35;;;4.70;85.40;;;;;;5092060;28;20487;-82
2023/01/16 05:59:10;;;;;;;8.37;3.10;;;4.70;85.40;;;;;;5110416;28;20059;-83
2023/01/16 06:01:37;;;;;;;8.10;3.40;;;4.70;85.40;;;;;;5110181;28;20409;-83
2023/01/16 06:04:05;;;;;;;8.15;3.40;;;4.70;85.40;;;;;;5091388;28;20052;-83
2023/01/16 06:06:32;;;;;;;9.68;3.00;;;4.70;85.40;;;;;;5109222;28;20145;-83
2023/01/16 06:08:59;;;;;;;9.70;3.00;;;4.70;85.30;;;;;;5108536;28;20127;-83
2023/01/16 06:11:26;;;;;;;7.53;2.90;;;4.60;85.40;;;;;;5107827;28;20117;-83
2023/01/16 06:13:53;;;;;;;7.68;2.65;;;4.60;85.40;;;;;;5108454;28;20715;-83
2023/01/16 06:16:22;;;;;;;8.55;2.70;;;4.60;85.50;;;;;;5108923;28;20179;-83
2023/01/16 06:18:49;;;;;;;8.00;2.70;;;4.60;85.50;;;;;;5108250;28;20048;-83
2023/01/16 06:21:18;;;;;;;9.02;3.15;;;4.60;85.40;;;;;;5108446;28;20103;-83
2023/01/16 06:23:45;;;;;;;6.87;2.97;;;4.50;85.50;;;;;;5108342;28;20078;-83
2023/01/16 06:26:11;;;;;;;8.50;3.15;;;4.50;85.50;;;;;;5108997;28;20271;-83
2023/01/16 06:28:38;;;;;;;7.38;2.92;;;4.60;85.50;;;;;;5108519;28;20499;-83
2023/01/16 06:31:06;;;;;;;10.13;2.58;;;4.50;85.50;;;;;;5107061;28;20127;-83
2023/01/16 06:33:33;;;;;;;6.95;2.17;;;4.50;85.40;;;;;;5108366;28;20062;-83
2023/01/16 06:36:00;;;;;;;6.67;2.83;;;4.60;85.50;;;;;;5108290;28;20123;-83
2023/01/16 06:38:28;;;;;;;7.88;2.40;;;4.60;85.60;;;;;;5108332;28;20375;-83
2023/01/16 06:40:56;;;;;;;6.45;2.30;;;4.60;85.70;;;;;;5108217;28;20051;-83
2023/01/16 06:43:23;;;;;;;6.40;2.55;;;4.70;85.70;;;;;;5091139;28;20055;-83
2023/01/16 06:45:50;;;;;;;7.47;2.38;;;4.70;85.80;;;;;;5108467;28;20139;-83
2023/01/16 06:48:17;;;;;;;6.33;2.10;;;4.70;85.80;;;;;;5086496;28;20135;-83
2023/01/16 06:50:45;;;;;;;7.32;2.10;;;4.70;85.80;;;;;;5099044;28;20267;-83
2023/01/16 06:53:14;;;;;;;5.13;2.22;;;4.70;85.70;;;;;;5102670;28;20052;-83
2023/01/16 06:55:43;;;;;;;7.55;2.50;;;4.70;85.70;;;;;;5104941;28;20097;-83
2023/01/16 06:58:10;;;;;;;6.10;1.90;;;4.70;85.70;;;;;;5107621;28;20146;-83
2023/01/16 07:00:37;;;;;;;7.07;1.90;;;4.70;85.80;;;;;;5100816;28;20537;-83
2023/01/16 07:03:04;;;;;;;9.32;2.40;;;4.70;85.80;;;;;;5096962;28;20853;-83
2023/01/16 07:05:32;;;;;;;8.30;1.92;;;4.70;85.90;;;;;;5106336;28;20054;-83
2023/01/16 07:07:59;;;;;;;5.32;1.85;;;4.80;85.90;;;;;;5109627;28;20060;-83
2023/01/16 07:10:26;;;;;;;8.27;2.13;;;4.80;85.90;;;;;;5107473;28;20202;-83
2023/01/16 07:12:55;;;;;;;5.57;2.03;;;4.80;85.90;;;;;;5107343;28;20056;-83
2023/01/16 07:23:44;;;;;;;4.57;1.77;;;4.90;85.70;;;;;;5105251;28;20059;-83
2023/01/16 07:26:14;;;;;;;6.80;1.80;;;4.90;85.80;;;;;;5090553;28;20511;-83
2023/01/16 07:28:42;;;;;;;5.70;1.83;;;4.80;85.50;;;;;;5108047;28;20338;-83
2023/01/16 07:31:09;;;;;;;7.10;1.83;;;4.80;85.30;;;;;;5107558;28;20040;-83
2023/01/16 07:33:36;;;;;;;5.35;1.80;;;4.80;85.50;;;;;;5106632;28;20159;-83
2023/01/16 07:36:03;;;;;;;7.32;1.80;;;4.70;85.60;;;;;;5107224;28;20050;-83
2023/01/16 07:38:30;;;;;;;5.53;1.70;;;4.80;85.60;;;;;;5107190;28;20131;-83
2023/01/16 07:40:57;;;;;;;5.50;2.10;;;4.80;85.70;;;;;;5104971;28;20338;-83
2023/01/16 07:43:24;;;;;;;6.57;1.98;;;4.80;85.50;;;;;;5106693;28;20190;-83
2023/01/16 07:45:57;;;;;;;5.53;1.90;;;4.80;85.70;;;;;;5106574;28;20096;-83
2023/01/16 07:48:25;;;;;;;7.25;2.08;;;4.80;85.70;;;;;;5106950;28;20163;-83
2023/01/16 07:50:52;;;;;;;4.63;1.60;;;4.80;86.00;;;;;;5107865;28;20474;-84
2023/01/16 07:53:22;;;;;;;5.43;1.75;;;4.80;85.80;;;;;;5090049;28;20271;-83
2023/01/16 07:55:49;;;;;;;6.38;1.90;;;4.80;85.70;;;;;;5106885;28;20056;-83
2023/01/16 07:58:17;;;;;;;6.28;1.85;;;4.80;85.80;;;;;;5105244;28;20048;-83
2023/01/16 08:00:44;;;;;;;6.68;1.90;;;4.90;86.00;;;;;;5104830;28;20534;-83
2023/01/16 08:03:13;;;;;;;7.40;2.40;;;4.90;85.90;;;;;;5102349;28;20214;-83
2023/01/16 08:05:40;;;;;;;6.03;2.03;;;4.90;86.10;;;;;;5103566;28;20266;-83
2023/01/16 08:08:07;;;;;;;6.18;2.10;;;4.90;86.00;;;;;;5090185;28;20159;-83
2023/01/16 08:10:34;;;;;;;6.70;2.30;;;4.90;85.80;;;;;;5105965;28;20044;-83
2023/01/16 08:13:01;;;;;;;6.03;2.08;;;4.90;86.00;;;;;;5103271;28;20090;-83
2023/01/16 08:15:28;;;;;;;9.30;2.50;;;4.90;86.00;;;;;;5109076;27;20090;-83
2023/01/16 08:17:55;;;;;;;5.30;1.95;;;4.90;85.90;;;;;;5101720;28;20270;-83
2023/01/16 08:20:24;;;;;;;5.35;1.95;;;4.90;86.00;;;;;;5105032;28;20048;-83
2023/01/16 08:22:53;;;;;;;7.22;2.20;;;4.90;85.90;;;;;;5105586;28;20127;-83
2023/01/16 08:25:22;;;;;;;6.45;2.25;;;4.90;85.90;;;;;;5087036;28;20045;-83
2023/01/16 08:27:50;;;;;;;7.67;2.30;;;4.90;86.00;;;;;;5108156;27;20079;-83
2023/01/16 08:30:18;;;;;;;8.57;2.53;;;4.90;86.20;;;;;;5107433;27;20260;-83
2023/01/16 08:32:45;;;;;;;5.90;2.20;;;4.90;86.40;;;;;;5112483;27;20532;-83
2023/01/16 08:35:12;;;;;;;5.80;2.45;;;4.90;86.50;;;;;;5106471;28;20051;-83
2023/01/16 08:37:48;;;;;;;7.85;2.28;;;4.90;86.30;;;;;;5111292;27;20082;-83
2023/01/16 08:40:15;;;;;;;5.53;2.30;;;5.00;86.40;;;;;;5105417;27;20187;-83
2023/01/16 08:53:43;;;;;;;5.07;1.80;;;5.00;86.30;;;;;;5106271;28;20443;-83
2023/01/16 08:56:10;;;;;;;5.45;1.90;;;5.00;86.20;;;;;;5103640;28;20721;-83
2023/01/16 08:58:37;;;;;;;8.50;2.10;;;5.00;86.10;;;;;;5108994;28;20052;-83
2023/01/16 09:01:04;;;;;;;5.00;1.65;;;5.00;86.00;;;;;;5104955;28;20044;-83
2023/01/16 09:03:33;;;;;;;5.25;1.70;;;5.00;85.90;;;;;;5104941;28;20044;-83
2023/01/16 09:06:00;;;;;;;5.77;1.60;;;4.90;85.90;;;;;;5104590;28;20466;-83
2023/01/16 09:08:27;;;;;;;7.35;1.63;;;4.90;86.30;;;;;;5105184;28;20252;-83
2023/01/16 09:13:52;;;;;;;4.25;1.30;;;5.00;86.30;;;;;;5108145;28;20220;-83
2023/01/16 09:16:21;;;;;;;4.53;1.63;;;5.00;86.20;;;;;;5108187;28;20526;-83
2023/01/16 09:18:48;;;;;;;3.07;1.03;;;4.90;86.30;;;;;;5110024;27;20076;-83
2023/01/16 09:21:16;;;;;;;4.63;1.88;;;4.90;86.40;;;;;;5102153;27;20258;-83
2023/01/16 09:23:43;;;;;;;4.95;1.50;;;5.00;86.60;;;;;;5101366;28;20056;-83
2023/01/16 09:26:11;;;;;;;4.60;1.30;;;5.00;87.00;;;;;;5086345;28;20074;-83
2023/01/16 09:28:38;;;;;;;7.35;1.27;;;5.00;87.10;;;;;;5090582;28;20052;-83
2023/01/16 09:31:05;;;;;;;5.13;0.93;;;5.00;87.50;;;;;;5108025;28;20640;-83
2023/01/16 09:33:33;;;;;;;4.10;1.17;;;5.00;87.80;;;;;;5081784;28;20344;-83
2023/01/16 09:36:00;;;;;;;5.78;1.10;;;5.10;87.70;;;;;;5108497;28;20142;-83
2023/01/16 09:38:28;;;;;;;4.88;1.30;;;5.10;88.10;;;;;;5108855;28;20080;-83
2023/01/16 09:40:58;;;;;;;4.63;1.08;;;5.20;87.90;;;;;;5107130;28;20569;-83
2023/01/16 09:43:38;;;;;;;4.33;1.10;;;5.30;87.50;;;;;;5099816;28;20052;-83
2023/01/16 09:46:10;;;;;;;4.30;0.90;;;5.30;87.30;;;;;;5104525;28;20412;-83
2023/01/16 09:48:44;;;;;;;4.75;1.10;;;5.20;87.20;;;;;;5086183;28;20044;-83
2023/01/16 09:51:15;;;;;;;4.97;1.00;;;5.30;87.20;;;;;;5100612;28;20135;-83
2023/01/16 09:59:28;;;;;;;4.55;0.95;;;5.30;87.90;;;;;;5109110;27;20275;-83
2023/01/16 10:02:01;;;;;;;3.17;0.80;;;5.40;87.50;;;;;;5088744;27;20052;-83
2023/01/16 10:04:30;;;;;;;3.40;0.70;;;5.30;87.00;;;;;;5107582;27;20417;-84
2023/01/16 10:07:18;;;;;;;3.35;0.73;;;5.30;87.10;;;;;;5124039;27;20059;-83
2023/01/16 10:09:52;;;;;;;3.63;0.67;;;5.30;87.20;;;;;;5102709;27;20122;-84
2023/01/16 10:12:19;;;;;;;3.92;0.70;;;5.30;87.10;;;;;;5112441;27;20783;-84
2023/01/16 10:14:59;;;;;;;2.75;0.60;;;5.30;86.80;;;;;;5113978;27;20044;-84
2023/01/16 10:17:35;;;;;;;3.67;0.80;;;5.30;87.00;;;;;;5109494;27;20558;-84
2023/01/16 10:20:26;;;;;;;2.47;0.50;;;5.30;87.00;;;;;;5097290;27;20048;-84
2023/01/16 10:23:04;;;;;;;3.20;0.57;;;5.30;86.70;;;;;;5102607;27;20044;-84
2023/01/16 10:25:38;;;;;;;4.05;0.40;;;5.30;86.40;;;;;;5110154;27;21011;-83
2023/01/16 10:28:20;;;;;;;3.13;0.60;;;5.30;86.40;;;;;;5115243;27;20091;-83
2023/01/16 10:30:52;;;;;;;2.95;0.47;;;5.30;86.20;;;;;;5106469;27;20130;-82
2023/01/16 10:33:29;;;;;;;3.88;0.50;;;5.20;86.10;;;;;;5095757;27;20052;-83
2023/01/16 10:35:59;;;;;;;2.87;0.60;;;5.10;86.20;;;;;;5074957;27;20154;-83
2023/01/16 10:38:39;;;;;;;3.55;0.50;;;5.10;86.20;;;;;;5090501;27;20342;-83
2023/01/16 10:49:25;;;;;;;2.28;0.40;;;5.10;86.10;;;;;;5110531;27;20140;-83
2023/01/16 10:49:27;;;;;;;2.57;0.53;;;5.00;86.10;;;;;;5134592;27;20055;-81
2023/01/16 10:51:55;;;;;;;2.92;0.60;;;5.00;85.80;;;;;;5109451;27;20257;-82
2023/01/16 10:54:23;;;;;;;2.08;0.50;;;5.00;85.70;;;;;;5099928;28;20052;-83
2023/01/16 10:56:49;;;;;;;2.97;0.60;;;5.00;85.70;;;;;;5098985;28;20052;-83
2023/01/16 10:59:17;;;;;;;2.20;0.60;;;4.90;85.60;;;;;;5098591;28;20076;-83
2023/01/16 11:01:47;;;;;;;3.40;0.70;;;4.90;85.80;;;;;;5095543;28;20044;-83
2023/01/16 11:04:19;;;;;;;2.70;0.70;;;4.90;85.90;;;;;;5102998;28;20324;-83
2023/01/16 11:06:46;;;;;;;3.58;0.93;;;4.90;86.10;;;;;;5103399;28;20087;-82
2023/01/16 11:09:19;;;;;;;3.90;0.90;;;4.90;86.50;;;;;;5084154;28;20063;-83
2023/01/16 11:20:16;;;;;;;2.85;0.70;;;4.90;86.60;;;;;;5086732;28;20117;-82
2023/01/16 11:22:48;;;;;;;3.67;0.90;;;4.90;86.70;;;;;;5103125;27;20052;-83
2023/01/16 11:25:17;;;;;;;3.30;0.80;;;4.90;86.60;;;;;;5102323;28;20098;-83
2023/01/16 11:27:46;;;;;;;3.53;0.80;;;4.90;86.80;;;;;;5103289;27;20055;-83
2023/01/16 11:30:18;;;;;;;3.88;1.00;;;4.90;86.80;;;;;;5109283;27;20246;-83
2023/01/16 11:32:48;;;;;;;3.78;0.90;;;4.90;86.70;;;;;;5113511;27;20052;-84
2023/01/16 11:35:18;;;;;;;4.00;0.95;;;4.90;86.80;;;;;;5090401;27;20474;-82
2023/01/16 11:37:49;;;;;;;2.20;0.60;;;4.90;86.70;;;;;;5084721;27;20125;-83
2023/01/16 11:40:19;;;;;;;2.80;0.90;;;4.90;86.60;;;;;;5085261;28;20052;-82
2023/01/16 11:46:07;;;;;;;3.78;0.85;;;4.90;86.60;;;;;;5093103;28;20059;-83
2023/01/16 11:48:44;;;;;;;2.92;0.80;;;4.90;86.80;;;;;;5086038;28;20082;-83
2023/01/16 11:51:15;;;;;;;3.15;0.75;;;4.90;86.70;;;;;;5104370;28;20063;-82
2023/01/16 11:53:45;;;;;;;2.90;0.90;;;4.90;86.60;;;;;;5096440;28;20062;-81
2023/01/16 11:56:31;;;;;;;3.75;0.93;;;4.90;87.00;;;;;;5098734;28;20278;-82
2023/01/16 11:59:25;;;;;;;2.83;0.85;;;4.90;87.00;;;;;;5105211;28;20438;-83
2023/01/16 12:02:19;;;;;;;3.53;0.73;;;4.90;86.90;;;;;;5086184;28;20079;-83
2023/01/16 12:07:51;;;;;;;3.83;0.80;;;4.90;86.90;;;;;;5100388;28;20083;-83
2023/01/16 12:10:29;;;;;;;3.70;0.85;;;4.90;86.90;;;;;;5096330;28;20357;-82
2023/01/16 12:16:09;;;;;;;4.07;0.77;;;4.90;87.10;;;;;;5086857;28;20044;-83
2023/01/16 12:18:46;;;;;;;4.05;0.88;;;4.90;87.10;;;;;;5093746;28;20055;-83
2023/01/16 12:21:27;;;;;;;3.53;0.70;;;4.90;87.10;;;;;;5125406;27;20573;-81
2023/01/16 12:24:20;;;;;;;2.65;0.70;;;4.90;87.10;;;;;;5088172;27;20250;-80
2023/01/16 12:27:02;;;;;;;2.55;0.57;;;5.00;87.00;;;;;;5099961;27;20141;-81
2023/01/16 12:29:40;;;;;;;3.08;0.80;;;5.00;87.30;;;;;;5105244;27;20114;-81
2023/01/16 12:32:38;;;;;;;2.38;0.50;;;4.90;87.20;;;;;;5105828;28;20127;-81
2023/01/16 12:35:23;;;;;;;4.00;0.90;;;5.00;87.20;;;;;;5105897;28;20044;-81
2023/01/16 12:38:08;;;;;;;4.05;0.82;;;4.90;87.20;;;;;;5104456;28;20275;-81
2023/01/16 12:40:52;;;;;;;3.28;0.80;;;4.90;87.10;;;;;;5105346;28;20510;-81
2023/01/16 12:43:25;;;;;;;3.65;0.82;;;4.90;87.20;;;;;;5096044;27;20053;-81
2023/01/16 12:45:55;;;;;;;4.38;0.77;;;4.90;87.20;;;;;;5098290;27;20044;-81
2023/01/16 12:48:51;;;;;;;3.60;0.70;;;4.90;87.10;;;;;;5102117;27;20498;-81
2023/01/16 12:51:38;;;;;;;3.95;0.80;;;4.90;87.20;;;;;;5082568;28;20840;-80
2023/01/16 12:54:40;;;;;;;3.00;0.80;;;4.90;87.50;;;;;;5103744;28;20172;-81
2023/01/16 12:57:40;;;;;;;2.90;0.70;;;4.90;87.40;;;;;;5101585;27;20052;-80
2023/01/16 13:00:13;;;;;;;2.60;0.70;;;5.00;87.60;;;;;;5080601;27;20515;-82
2023/01/16 13:02:45;;;;;;;2.93;1.00;;;4.90;87.50;;;;;;5108680;27;20855;-83
2023/01/16 13:05:18;;;;;;;4.28;0.95;;;5.00;87.50;;;;;;5093477;28;20310;-83
2023/01/16 13:07:52;;;;;;;2.85;0.80;;;4.90;87.50;;;;;;5109746;28;20169;-83
2023/01/16 13:13:24;;;;;;;4.18;0.90;;;5.00;87.70;;;;;;5108535;28;20518;-82
2023/01/16 13:15:58;;;;;;;2.93;0.83;;;5.00;87.70;;;;;;5099738;28;20071;-82
2023/01/16 13:18:29;;;;;;;3.22;0.90;;;5.00;87.60;;;;;;5109789;28;20283;-83
2023/01/16 13:20:59;;;;;;;3.53;1.10;;;5.00;87.80;;;;;;5097656;28;20123;-83
2023/01/16 13:23:30;;;;;;;2.97;1.10;;;5.00;87.60;;;;;;5105358;27;20080;-83
2023/01/16 13:26:02;;;;;;;3.35;1.25;;;5.00;87.60;;;;;;5100667;28;20597;-83
2023/01/16 13:28:42;;;;;;;4.20;1.00;;;5.00;87.60;;;;;;5105732;28;20066;-81
2023/01/16 13:31:19;;;;;;;2.97;1.00;;;5.00;87.70;;;;;;5100934;28;20255;-82
2023/01/16 13:33:50;;;;;;;3.10;1.00;;;5.00;87.70;;;;;;5085817;28;20556;-82
2023/01/16 13:36:53;;;;;;;3.25;1.00;;;5.00;87.80;;;;;;5104549;28;20408;-81
2023/01/16 13:40:00;;;;;;;2.85;0.80;;;5.00;87.80;;;;;;5102131;27;20136;-81
2023/01/16 13:42:30;;;;;;;3.87;1.00;;;5.00;88.00;;;;;;5106901;27;20047;-80
2023/01/16 13:47:47;;;;;;;3.38;0.73;;;5.10;87.80;;;;;;5095563;28;20621;-81
2023/01/16 13:50:22;;;;;;;3.42;0.70;;;5.10;87.80;;;;;;5099156;28;20059;-80
2023/01/16 13:52:50;;;;;;;3.17;0.80;;;5.10;88.00;;;;;;5102537;28;20872;-81
2023/01/16 13:55:29;;;;;;;3.93;0.70;;;5.10;88.20;;;;;;5100075;28;20617;-80
2023/01/16 13:58:06;;;;;;;4.20;0.73;;;5.10;88.00;;;;;;5106382;28;20731;-80
2023/01/16 14:00:36;;;;;;;3.25;0.93;;;5.20;87.90;;;;;;5104720;28;20131;-80
2023/01/16 14:03:18;;;;;;;3.47;0.80;;;5.20;88.00;;;;;;5089283;28;20411;-80
2023/01/16 14:05:49;;;;;;;2.90;0.80;;;5.20;88.00;;;;;;5115044;27;20424;-80
2023/01/16 14:09:07;;;;;;;3.20;0.70;;;5.20;87.90;;;;;;5101554;28;20135;-80
2023/01/16 14:11:40;;;;;;;2.55;0.60;;;5.30;87.90;;;;;;5105125;28;20266;-81
2023/01/16 14:17:17;;;;;;;3.60;0.47;;;5.30;87.70;;;;;;5095571;28;20044;-81
2023/01/16 14:19:54;;;;;;;2.30;0.50;;;5.30;87.80;;;;;;5100915;27;20092;-81
2023/01/16 14:25:18;;;;;;;3.40;0.50;;;5.30;87.80;;;;;;5095664;28;20267;-81